08TE weather

B. J. Mc Combs Sisterdale Airport
Comfort, Texas, United States

Public forecast

Using degrees Fahrenheit for public forecast. Weather courtesy of forecast.io.

Closest aviation weather report (METAR) to B. J. Mc Combs Sisterdale Airport

Closest report is Boerne Stage Field, 15.3 nm (28.3 km) S. Retrieved 2019/12/15 04:35 UTC (17 minutes ago):

K5C1 150435Z AUTO 00000KT 10SM CLR 08/03 A2979 RMK AO1

Closest aviation forecast (TAF) to B. J. Mc Combs Sisterdale Airport

Closest forecast is San Antonio International Airport, 30.1 nm (55.7 km) SSE. Retrieved 2019-12-15 00:27 UTC (4 hours ago):

TAF KSAT 142325Z 1500/1606 15007KT P6SM FEW250 FM150600 18005KT P6SM SKC FM151500 18010KT P6SM SCT020 FM160000 16007KT P6SM FEW050 SCT250